Time;durP1;ratioP1;P1;durP2;ratioP2;P2;SDS_P1;SDS_P2;PMS_P1;PMS_P2;Temp;Humidity;BMP_temperature;BMP_pressure;BME280_temperature;BME280_humidity;BME280_pressure;Samples;Min_cycle;Max_cycle;Signal;HPM_P1;HPM_P2
2022/07/05 00:00:18;;;;;;;2.05;1.02;;;16.40;87.00;;;;;;5033988;28;20086;-75
2022/07/05 00:02:43;;;;;;;4.20;1.27;;;16.40;87.30;;;;;;5046857;28;20032;-75
2022/07/05 00:05:09;;;;;;;1.15;1.00;;;16.40;87.60;;;;;;5039862;28;20055;-75
2022/07/05 00:07:35;;;;;;;1.77;1.10;;;16.30;87.80;;;;;;5044591;28;20033;-75
2022/07/05 00:10:01;;;;;;;2.25;0.90;;;16.40;87.80;;;;;;5038351;28;20028;-74
2022/07/05 00:12:31;;;;;;;1.15;1.00;;;16.40;87.70;;;;;;5044645;28;20537;-75
2022/07/05 00:14:57;;;;;;;2.20;1.00;;;16.40;88.10;;;;;;5038775;28;20496;-75
2022/07/05 00:17:23;;;;;;;3.17;1.30;;;16.30;88.80;;;;;;5045283;28;20029;-75
2022/07/05 00:19:48;;;;;;;2.75;1.27;;;16.30;89.20;;;;;;5042578;28;20048;-75
2022/07/05 00:22:14;;;;;;;3.35;1.25;;;16.20;89.40;;;;;;5038954;28;20780;-75
2022/07/05 00:24:40;;;;;;;2.85;1.10;;;16.20;89.50;;;;;;5045880;28;20033;-75
2022/07/05 00:27:05;;;;;;;1.92;1.00;;;16.20;90.00;;;;;;5049363;28;20486;-75
2022/07/05 00:29:31;;;;;;;1.55;1.10;;;16.10;90.00;;;;;;5040835;28;20033;-75
2022/07/05 00:31:57;;;;;;;2.78;1.40;;;16.10;90.40;;;;;;5043297;28;20496;-75
2022/07/05 00:34:22;;;;;;;1.63;1.20;;;16.00;90.70;;;;;;5041464;28;20054;-75
2022/07/05 00:36:48;;;;;;;4.13;1.20;;;16.00;91.00;;;;;;5044165;28;20029;-76
2022/07/05 00:39:14;;;;;;;1.70;1.20;;;16.00;91.40;;;;;;5040753;28;20033;-75
2022/07/05 00:41:39;;;;;;;1.52;1.30;;;15.90;91.80;;;;;;5046834;28;20033;-75
2022/07/05 00:44:10;;;;;;;1.33;1.00;;;15.80;92.20;;;;;;5043616;28;20075;-75
2022/07/05 00:46:36;;;;;;;2.03;1.27;;;15.80;92.80;;;;;;5047643;28;20389;-75
2022/07/05 00:49:04;;;;;;;1.60;1.17;;;15.90;94.70;;;;;;5042478;28;20028;-75
2022/07/05 00:51:31;;;;;;;4.35;1.40;;;15.80;94.70;;;;;;5046212;28;20025;-75
2022/07/05 00:53:58;;;;;;;2.00;1.33;;;15.80;95.40;;;;;;5044472;28;20116;-74
2022/07/05 00:56:24;;;;;;;3.42;1.30;;;15.70;95.30;;;;;;5042609;28;20123;-74
2022/07/05 00:58:50;;;;;;;2.83;1.40;;;15.70;95.50;;;;;;5038344;28;20389;-75
2022/07/05 01:01:16;;;;;;;2.95;1.30;;;15.60;96.20;;;;;;5044544;28;20048;-75
2022/07/05 01:03:43;;;;;;;3.03;1.35;;;15.50;96.50;;;;;;5043777;28;20041;-75
2022/07/05 01:06:11;;;;;;;1.88;1.10;;;15.50;98.10;;;;;;5045584;28;20405;-75
2022/07/05 01:08:44;;;;;;;2.70;1.27;;;15.50;98.20;;;;;;5040651;28;20033;-75
2022/07/05 01:11:10;;;;;;;3.67;1.23;;;15.50;98.50;;;;;;5041789;28;20061;-75
2022/07/05 01:13:36;;;;;;;2.40;1.67;;;15.30;97.80;;;;;;5042926;28;20033;-75
2022/07/05 01:16:02;;;;;;;2.42;1.42;;;15.30;98.20;;;;;;5043337;28;20033;-75
2022/07/05 01:18:29;;;;;;;4.88;1.80;;;15.40;98.20;;;;;;5041040;28;20025;-75
2022/07/05 01:20:55;;;;;;;2.97;1.70;;;15.50;98.10;;;;;;5039779;28;20029;-75
2022/07/05 01:23:22;;;;;;;2.72;1.50;;;15.50;98.30;;;;;;5040086;28;20704;-75
2022/07/05 01:25:48;;;;;;;3.05;1.70;;;15.50;98.90;;;;;;5039203;28;20036;-75
2022/07/05 01:28:14;;;;;;;2.53;1.42;;;15.40;99.30;;;;;;5037393;28;20550;-75
2022/07/05 01:30:41;;;;;;;2.47;1.65;;;15.30;99.70;;;;;;5038105;28;20083;-75
2022/07/05 01:33:08;;;;;;;2.33;1.60;;;15.20;99.90;;;;;;5046276;28;20029;-75
2022/07/05 01:35:34;;;;;;;3.05;1.33;;;15.20;99.90;;;;;;5042968;28;20161;-75
2022/07/05 01:38:00;;;;;;;2.45;1.60;;;15.10;99.90;;;;;;5046701;28;20112;-75
2022/07/05 01:40:25;;;;;;;3.45;1.80;;;15.00;99.90;;;;;;5044876;28;20120;-75
2022/07/05 01:42:52;;;;;;;3.22;1.80;;;15.00;99.90;;;;;;5046222;28;20032;-75
2022/07/05 01:48:04;;;;;;;3.90;2.00;;;14.90;99.90;;;;;;5043068;28;20078;-75
2022/07/05 01:50:33;;;;;;;3.17;2.00;;;14.80;99.90;;;;;;5048374;28;20117;-75
2022/07/05 01:53:00;;;;;;;3.63;1.90;;;14.80;99.90;;;;;;5045554;28;20455;-75
2022/07/05 01:55:26;;;;;;;2.55;1.80;;;14.70;99.90;;;;;;5048001;28;20025;-75
2022/07/05 01:57:52;;;;;;;2.78;1.63;;;14.70;99.90;;;;;;5051768;28;20838;-75
2022/07/05 02:00:17;;;;;;;1.95;1.70;;;14.60;99.90;;;;;;5042062;28;20060;-75
2022/07/05 02:02:44;;;;;;;2.42;1.77;;;14.60;99.90;;;;;;5041167;28;20029;-74
2022/07/05 02:05:10;;;;;;;2.72;1.73;;;14.60;99.90;;;;;;5040973;28;20037;-75
2022/07/05 02:07:35;;;;;;;3.03;2.00;;;14.60;99.90;;;;;;5050723;28;20392;-75
2022/07/05 02:10:01;;;;;;;3.42;1.80;;;14.50;99.90;;;;;;5042404;28;20017;-75
2022/07/05 02:12:26;;;;;;;2.88;1.90;;;14.50;99.90;;;;;;5036801;28;20025;-75
2022/07/05 02:14:52;;;;;;;4.18;2.17;;;14.50;99.90;;;;;;5046464;28;20059;-75
2022/07/05 02:17:17;;;;;;;2.90;1.90;;;14.50;99.90;;;;;;5040178;28;20017;-75
2022/07/05 02:19:43;;;;;;;2.88;2.30;;;14.50;99.90;;;;;;5044162;28;20108;-74
2022/07/05 02:22:09;;;;;;;4.88;2.20;;;14.50;99.90;;;;;;5044699;28;20017;-75
2022/07/05 02:24:34;;;;;;;2.95;2.13;;;14.50;99.90;;;;;;5043254;28;20057;-75
2022/07/05 02:27:00;;;;;;;3.08;1.80;;;14.40;99.90;;;;;;5048250;28;20565;-75
2022/07/05 02:29:25;;;;;;;2.55;1.90;;;14.40;99.90;;;;;;5043548;28;20033;-75
2022/07/05 02:31:52;;;;;;;3.53;2.13;;;14.40;99.90;;;;;;5022239;28;20084;-75
2022/07/05 02:34:17;;;;;;;2.22;1.98;;;14.40;99.90;;;;;;5020907;28;20584;-76
2022/07/05 02:36:43;;;;;;;2.40;1.80;;;14.40;99.90;;;;;;5026499;28;20049;-75
2022/07/05 02:39:09;;;;;;;2.20;1.98;;;14.40;99.90;;;;;;5020546;28;20025;-75
2022/07/05 02:41:34;;;;;;;4.72;2.10;;;14.30;99.90;;;;;;5023033;28;20041;-75
2022/07/05 02:44:00;;;;;;;3.05;2.20;;;14.30;99.90;;;;;;5020124;28;20488;-75
2022/07/05 02:46:26;;;;;;;2.17;1.98;;;;;;;;;;5030890;28;20029;-75
2022/07/05 02:48:52;;;;;;;2.08;1.88;;;14.20;99.90;;;;;;5025222;28;20029;-75
2022/07/05 02:51:18;;;;;;;4.82;2.40;;;14.20;99.90;;;;;;5016350;28;20030;-76
2022/07/05 02:53:43;;;;;;;3.40;2.00;;;14.30;99.90;;;;;;5024558;28;20421;-75
2022/07/05 02:56:09;;;;;;;5.32;2.38;;;14.30;99.90;;;;;;5033083;28;20061;-76
2022/07/05 02:58:37;;;;;;;4.18;2.15;;;14.30;99.90;;;;;;5023848;28;20029;-75
2022/07/05 03:01:02;;;;;;;2.28;2.08;;;14.30;99.90;;;;;;5016753;28;20587;-75
2022/07/05 03:03:28;;;;;;;4.40;2.42;;;14.20;99.90;;;;;;5028753;28;20032;-75
2022/07/05 03:05:54;;;;;;;4.43;2.88;;;14.20;99.90;;;;;;5025282;28;20022;-75
2022/07/05 03:08:19;;;;;;;4.57;2.60;;;14.10;99.90;;;;;;5008184;28;20037;-75
2022/07/05 03:10:45;;;;;;;3.50;2.65;;;14.10;99.90;;;;;;5009762;28;20109;-75
2022/07/05 03:13:10;;;;;;;4.75;2.65;;;14.00;99.90;;;;;;5024278;28;20068;-75
2022/07/05 03:15:36;;;;;;;4.60;2.80;;;14.00;99.90;;;;;;5027461;28;20026;-76
2022/07/05 03:18:02;;;;;;;3.30;2.50;;;13.90;99.90;;;;;;5024696;28;20029;-75
2022/07/05 03:20:28;;;;;;;2.92;2.17;;;13.90;99.90;;;;;;5015691;28;20493;-75
2022/07/05 03:22:53;;;;;;;3.47;2.72;;;13.90;99.90;;;;;;5027246;28;20029;-75
2022/07/05 03:25:19;;;;;;;3.78;2.45;;;13.90;99.90;;;;;;5025183;28;20026;-75
2022/07/05 03:27:45;;;;;;;4.18;2.20;;;13.90;99.90;;;;;;5030009;28;20079;-75
2022/07/05 03:30:11;;;;;;;3.40;2.33;;;13.90;99.90;;;;;;5036083;28;20437;-76
2022/07/05 03:32:37;;;;;;;3.67;2.55;;;13.90;99.90;;;;;;5028891;28;20037;-75
2022/07/05 03:35:03;;;;;;;4.05;2.63;;;13.90;99.90;;;;;;5036451;28;20064;-75
2022/07/05 03:37:28;;;;;;;3.80;2.50;;;13.90;99.90;;;;;;5041470;28;20512;-75
2022/07/05 03:39:54;;;;;;;3.33;2.40;;;13.90;99.90;;;;;;5044150;28;20552;-75
2022/07/05 03:42:19;;;;;;;3.72;2.65;;;13.90;99.90;;;;;;5044356;28;20072;-75
2022/07/05 03:44:45;;;;;;;4.28;2.53;;;13.90;99.90;;;;;;5043780;28;20029;-75
2022/07/05 03:47:11;;;;;;;3.00;2.80;;;14.00;99.90;;;;;;5044698;28;20056;-75
2022/07/05 03:49:36;;;;;;;4.55;2.60;;;14.00;99.90;;;;;;5044020;28;20017;-76
2022/07/05 03:52:02;;;;;;;3.55;2.55;;;14.00;99.90;;;;;;5040502;28;20069;-76
2022/07/05 03:54:28;;;;;;;3.63;2.65;;;14.00;99.90;;;;;;5045023;28;20154;-75
2022/07/05 03:56:53;;;;;;;3.00;2.80;;;14.00;99.90;;;;;;5044204;28;20093;-75
2022/07/05 03:59:19;;;;;;;3.97;2.55;;;14.10;99.90;;;;;;5032865;28;20048;-76
2022/07/05 04:01:44;;;;;;;3.75;2.40;;;14.10;99.90;;;;;;5035772;28;20052;-76
2022/07/05 04:04:10;;;;;;;5.50;2.55;;;14.10;99.90;;;;;;5040369;28;20032;-75
2022/07/05 04:06:35;;;;;;;3.03;2.30;;;14.30;99.90;;;;;;5041598;28;20025;-76
2022/07/05 04:09:01;;;;;;;5.32;2.33;;;14.30;99.90;;;;;;5041599;28;20046;-75
2022/07/05 04:11:27;;;;;;;2.50;2.30;;;14.40;99.90;;;;;;5047579;28;20370;-75
2022/07/05 04:13:52;;;;;;;3.03;2.53;;;14.40;99.90;;;;;;5043333;28;20021;-75
2022/07/05 04:16:18;;;;;;;3.53;2.28;;;14.50;99.90;;;;;;5032683;28;20125;-76
2022/07/05 04:18:43;;;;;;;5.13;2.35;;;14.90;99.90;;;;;;5031687;28;20040;-75
2022/07/05 04:21:09;;;;;;;4.35;2.45;;;15.80;99.90;;;;;;5030606;28;20049;-76
2022/07/05 04:23:35;;;;;;;3.35;2.50;;;17.00;99.90;;;;;;5041397;28;20029;-75
2022/07/05 04:26:01;;;;;;;3.70;2.50;;;18.20;99.90;;;;;;5041350;28;20536;-75
2022/07/05 04:28:29;;;;;;;2.10;1.90;;;19.10;99.90;;;;;;5036842;28;20032;-76
2022/07/05 04:30:56;;;;;;;3.92;2.63;;;19.80;99.90;;;;;;5039381;28;20036;-76
2022/07/05 04:33:21;;;;;;;3.25;2.42;;;19.70;99.20;;;;;;5034892;28;20033;-76
2022/07/05 04:35:47;;;;;;;3.88;2.40;;;19.40;99.10;;;;;;5043576;28;20104;-76
2022/07/05 04:38:13;;;;;;;3.33;2.58;;;18.90;99.50;;;;;;5034019;28;20036;-79
2022/07/05 04:40:40;;;;;;;4.30;2.17;;;18.40;99.90;;;;;;5041457;28;20781;-79
2022/07/05 04:43:06;;;;;;;5.03;2.80;;;18.00;99.90;;;;;;5029916;28;20033;-79
2022/07/05 04:45:32;;;;;;;3.20;2.55;;;17.50;99.90;;;;;;5028414;28;20520;-79
2022/07/05 04:47:58;;;;;;;4.38;2.67;;;17.00;99.90;;;;;;5027062;28;20028;-79
2022/07/05 04:50:23;;;;;;;4.47;2.58;;;16.70;99.90;;;;;;5038907;28;20024;-79
2022/07/05 04:52:49;;;;;;;2.72;2.42;;;16.50;99.90;;;;;;5041943;28;20088;-79
2022/07/05 04:55:14;;;;;;;3.45;2.63;;;16.40;99.90;;;;;;5045928;28;20033;-79
2022/07/05 04:57:41;;;;;;;3.45;2.40;;;16.20;99.90;;;;;;5035235;28;20017;-79
2022/07/05 05:00:09;;;;;;;5.43;2.50;;;16.20;99.90;;;;;;5028480;28;20301;-79
2022/07/05 05:02:35;;;;;;;3.03;2.35;;;16.20;99.90;;;;;;5045071;28;20047;-79
2022/07/05 05:05:02;;;;;;;9.20;2.58;;;16.30;99.90;;;;;;5043922;28;20025;-79
2022/07/05 05:07:28;;;;;;;3.15;2.45;;;16.60;99.90;;;;;;5032217;28;20478;-79
2022/07/05 05:09:53;;;;;;;6.00;2.50;;;16.80;99.90;;;;;;5042087;28;20412;-79
2022/07/05 05:12:19;;;;;;;4.03;2.42;;;17.20;99.90;;;;;;5047067;28;20021;-79
2022/07/05 05:14:44;;;;;;;2.33;2.13;;;17.40;99.90;;;;;;5041272;28;20726;-78
2022/07/05 05:17:10;;;;;;;3.03;2.30;;;17.60;99.90;;;;;;5029996;28;20376;-79
2022/07/05 05:19:36;;;;;;;6.78;2.50;;;17.70;99.90;;;;;;5035399;28;20020;-78
2022/07/05 05:22:02;;;;;;;2.72;2.17;;;17.70;99.90;;;;;;5041237;28;20085;-79
2022/07/05 05:24:27;;;;;;;5.07;2.40;;;17.60;99.90;;;;;;5055201;28;20140;-79
2022/07/05 05:26:53;;;;;;;3.13;2.40;;;17.50;99.90;;;;;;5042854;28;20036;-78
2022/07/05 05:29:20;;;;;;;2.35;1.90;;;17.40;99.90;;;;;;5048015;28;20366;-78
2022/07/05 05:31:46;;;;;;;3.63;1.98;;;17.30;99.90;;;;;;5049660;28;20086;-79
2022/07/05 05:34:12;;;;;;;7.32;2.63;;;17.30;99.90;;;;;;5043155;28;20041;-78
2022/07/05 05:36:37;;;;;;;2.53;2.33;;;17.40;99.90;;;;;;5043331;28;20036;-79
2022/07/05 05:39:03;;;;;;;4.32;2.30;;;17.40;99.90;;;;;;5047139;28;20476;-78
2022/07/05 05:41:28;;;;;;;5.00;2.25;;;17.50;99.90;;;;;;5048543;28;20037;-75
2022/07/05 05:43:54;;;;;;;2.95;2.45;;;17.60;99.90;;;;;;5049006;28;20071;-75
2022/07/05 05:46:19;;;;;;;5.00;2.75;;;17.50;99.90;;;;;;5047698;28;20087;-76
2022/07/05 05:48:45;;;;;;;5.63;2.92;;;17.60;99.90;;;;;;5047932;28;20527;-76
2022/07/05 05:51:11;;;;;;;6.10;2.30;;;17.60;99.90;;;;;;5048164;28;20113;-76
2022/07/05 05:53:36;;;;;;;5.22;2.67;;;17.70;99.90;;;;;;5043826;28;20021;-77
2022/07/05 05:56:02;;;;;;;7.40;2.72;;;17.80;99.90;;;;;;5040016;28;20033;-77
2022/07/05 05:58:27;;;;;;;3.05;2.40;;;17.90;99.90;;;;;;5036648;28;21046;-76
2022/07/05 06:00:53;;;;;;;6.15;2.38;;;18.10;99.90;;;;;;5035280;28;20033;-76
2022/07/05 06:03:20;;;;;;;4.93;2.42;;;18.10;99.90;;;;;;5045293;28;20171;-77
2022/07/05 06:05:46;;;;;;;5.47;2.75;;;18.20;99.90;;;;;;5040697;28;20578;-77
2022/07/05 06:08:12;;;;;;;3.95;2.70;;;18.20;99.90;;;;;;5034181;28;20033;-77
2022/07/05 06:10:38;;;;;;;7.75;2.80;;;18.30;99.90;;;;;;5031101;28;20025;-77
2022/07/05 06:13:07;;;;;;;7.25;3.33;;;18.50;99.90;;;;;;5040793;28;20404;-78
2022/07/05 06:15:33;;;;;;;7.85;3.60;;;18.70;99.90;;;;;;5032368;28;20454;-78
2022/07/05 06:17:59;;;;;;;4.93;3.25;;;18.80;99.90;;;;;;5042040;28;20033;-78
2022/07/05 06:20:26;;;;;;;4.43;2.67;;;18.90;99.90;;;;;;5048305;28;20023;-78
2022/07/05 06:22:53;;;;;;;4.80;2.85;;;19.00;99.90;;;;;;5047997;28;20052;-79
2022/07/05 06:25:19;;;;;;;4.75;2.78;;;19.00;99.90;;;;;;5045132;28;20203;-78
2022/07/05 06:27:48;;;;;;;6.20;2.80;;;19.10;99.90;;;;;;5046051;28;20033;-78
2022/07/05 06:30:16;;;;;;;5.43;2.90;;;19.30;99.90;;;;;;5045352;28;20029;-78
2022/07/05 06:32:46;;;;;;;5.30;2.80;;;19.40;99.90;;;;;;5046179;28;20024;-78
2022/07/05 06:35:12;;;;;;;9.93;4.28;;;19.40;99.90;;;;;;5041932;28;20377;-78
2022/07/05 06:37:42;;;;;;;7.57;4.63;;;19.40;99.90;;;;;;5047047;28;20071;-78
2022/07/05 06:40:10;;;;;;;7.20;4.65;;;19.40;99.90;;;;;;5044501;28;20116;-78
2022/07/05 06:42:35;;;;;;;9.38;4.60;;;19.30;99.90;;;;;;5046046;28;20025;-78
2022/07/05 06:45:01;;;;;;;6.95;5.28;;;19.30;99.90;;;;;;5039917;28;20025;-78
2022/07/05 06:47:27;;;;;;;8.23;4.63;;;19.50;99.60;;;;;;5043143;28;20079;-78
2022/07/05 06:49:52;;;;;;;7.10;3.80;;;19.80;98.80;;;;;;5039644;28;20597;-78
2022/07/05 06:52:18;;;;;;;8.50;3.47;;;20.00;98.20;;;;;;5049043;28;20035;-78
2022/07/05 06:54:43;;;;;;;6.45;3.38;;;20.30;97.20;;;;;;5044440;28;20036;-78
2022/07/05 06:57:10;;;;;;;9.77;3.78;;;20.60;96.50;;;;;;5042569;28;20036;-78
2022/07/05 06:59:36;;;;;;;5.90;2.95;;;20.80;96.70;;;;;;5047008;28;20033;-78
2022/07/05 07:02:03;;;;;;;4.55;2.72;;;21.00;95.80;;;;;;5042482;28;20037;-78
2022/07/05 07:04:28;;;;;;;5.30;2.53;;;21.20;94.60;;;;;;5038992;28;20051;-78
2022/07/05 07:06:54;;;;;;;5.70;3.00;;;21.40;94.20;;;;;;5047669;28;20028;-78
2022/07/05 07:09:21;;;;;;;9.02;3.60;;;21.60;94.10;;;;;;5043314;28;20385;-78
2022/07/05 07:11:48;;;;;;;7.80;3.17;;;21.80;93.70;;;;;;5046763;28;20025;-78
2022/07/05 07:14:14;;;;;;;5.90;2.67;;;21.90;93.20;;;;;;5039516;28;20025;-78
2022/07/05 07:16:40;;;;;;;3.63;2.95;;;22.10;93.00;;;;;;5043344;28;20554;-78
2022/07/05 07:19:05;;;;;;;3.33;2.40;;;22.20;92.80;;;;;;5030208;28;20048;-79
2022/07/05 07:21:31;;;;;;;4.03;2.55;;;22.40;92.20;;;;;;5051305;28;20032;-78
2022/07/05 07:23:57;;;;;;;4.53;2.60;;;22.50;91.80;;;;;;5041387;28;20473;-79
2022/07/05 07:26:22;;;;;;;6.25;2.80;;;22.70;91.20;;;;;;5031496;28;20026;-78
2022/07/05 07:28:48;;;;;;;8.65;2.35;;;22.80;91.20;;;;;;5039469;28;20013;-78
2022/07/05 07:31:13;;;;;;;3.78;2.35;;;23.00;90.70;;;;;;5035978;28;20108;-78
2022/07/05 07:33:39;;;;;;;8.63;2.60;;;23.20;90.20;;;;;;5034658;28;20402;-78
2022/07/05 07:36:05;;;;;;;8.35;2.63;;;23.30;88.70;;;;;;5040088;28;20023;-78
2022/07/05 07:38:31;;;;;;;6.22;2.42;;;23.30;88.90;;;;;;5030788;28;20564;-78
2022/07/05 07:40:56;;;;;;;4.97;2.67;;;23.50;89.10;;;;;;5026607;28;20386;-78
2022/07/05 07:43:22;;;;;;;7.68;2.70;;;23.70;88.00;;;;;;5047903;28;20361;-78
2022/07/05 07:45:48;;;;;;;10.30;2.88;;;23.80;86.40;;;;;;5038404;28;20025;-78
2022/07/05 07:48:14;;;;;;;5.63;2.35;;;23.80;86.30;;;;;;5039136;28;20029;-77
2022/07/05 07:50:39;;;;;;;7.35;2.90;;;23.90;85.50;;;;;;5038065;28;20056;-78
2022/07/05 07:53:05;;;;;;;7.75;2.50;;;24.00;84.40;;;;;;5044155;28;20033;-78
2022/07/05 07:55:31;;;;;;;5.95;2.40;;;24.10;85.00;;;;;;5038312;28;20021;-78
2022/07/05 07:57:56;;;;;;;5.55;2.38;;;24.20;84.40;;;;;;5031593;28;20025;-78
2022/07/05 08:00:22;;;;;;;3.60;2.17;;;24.60;99.90;;;;;;5035205;28;20041;-78
2022/07/05 08:02:48;;;;;;;7.15;2.33;;;;;;;;;;5045960;28;20032;-78
2022/07/05 08:05:14;;;;;;;3.42;1.70;;;;;;;;;;5044884;28;20032;-77
2022/07/05 08:07:39;;;;;;;6.00;2.38;;;25.30;97.60;;;;;;5041364;28;20546;-77
2022/07/05 08:10:06;;;;;;;7.05;2.33;;;25.40;97.90;;;;;;5044064;28;20338;-77
2022/07/05 08:12:32;;;;;;;5.65;2.47;;;25.30;96.90;;;;;;5051439;28;20489;-78
2022/07/05 08:14:57;;;;;;;4.43;2.28;;;25.20;96.20;;;;;;5033722;28;20037;-78
2022/07/05 08:17:23;;;;;;;5.65;2.40;;;24.90;95.20;;;;;;5037731;28;20578;-78
2022/07/05 08:22:32;;;;;;;6.90;1.90;;;24.10;95.20;;;;;;5044868;28;20059;-77
2022/07/05 08:24:58;;;;;;;6.88;2.10;;;23.90;97.10;;;;;;5034091;28;20021;-78
2022/07/05 08:27:24;;;;;;;3.47;1.75;;;24.00;97.70;;;;;;5046013;28;20480;-79
2022/07/05 08:29:50;;;;;;;4.10;2.13;;;24.40;97.30;;;;;;5036954;28;20468;-78
2022/07/05 08:32:16;;;;;;;9.32;2.40;;;24.80;96.30;;;;;;5045109;28;20029;-77
2022/07/05 08:34:42;;;;;;;3.65;2.03;;;25.40;75.60;;;;;;5045280;28;20040;-78
2022/07/05 08:37:07;;;;;;;8.85;2.55;;;25.40;75.40;;;;;;5042315;28;20052;-75
2022/07/05 08:39:34;;;;;;;9.80;2.20;;;25.40;76.40;;;;;;5035120;28;20144;-75
2022/07/05 08:42:00;;;;;;;6.00;2.13;;;25.20;75.70;;;;;;5045899;28;20051;-75
2022/07/05 08:44:28;;;;;;;9.50;2.20;;;25.30;75.30;;;;;;5043494;28;20064;-75
2022/07/05 08:46:56;;;;;;;5.18;1.90;;;25.40;75.60;;;;;;5039738;28;20116;-76
2022/07/05 08:49:28;;;;;;;6.35;2.20;;;25.60;75.30;;;;;;5045841;28;20021;-75
2022/07/05 08:51:55;;;;;;;4.72;2.13;;;25.60;74.30;;;;;;5042444;28;20029;-75
2022/07/05 08:54:24;;;;;;;5.80;2.20;;;25.40;75.10;;;;;;5041193;28;20489;-75
2022/07/05 08:56:50;;;;;;;4.07;2.10;;;25.20;74.50;;;;;;5048371;28;20036;-76
2022/07/05 08:59:15;;;;;;;5.32;1.92;;;25.10;75.00;;;;;;5028501;28;20023;-75
2022/07/05 09:01:45;;;;;;;3.55;1.92;;;25.20;75.50;;;;;;5032906;28;20024;-75
2022/07/05 09:04:12;;;;;;;6.20;2.38;;;25.40;74.60;;;;;;5037440;28;20516;-75
2022/07/05 09:06:40;;;;;;;4.75;1.88;;;25.40;74.50;;;;;;5045343;28;20059;-76
2022/07/05 09:09:07;;;;;;;3.95;1.95;;;25.30;74.10;;;;;;5043071;28;20025;-75
2022/07/05 09:11:41;;;;;;;5.90;2.30;;;25.10;74.10;;;;;;5041611;28;20112;-75
2022/07/05 09:14:24;;;;;;;4.25;1.75;;;24.90;74.50;;;;;;5043288;28;20630;-75
2022/07/05 09:16:50;;;;;;;3.38;1.60;;;24.70;76.20;;;;;;5041694;28;20029;-75
2022/07/05 09:19:16;;;;;;;3.72;1.85;;;24.70;76.10;;;;;;5043501;28;20040;-75
2022/07/05 09:21:42;;;;;;;2.45;1.67;;;24.80;75.90;;;;;;5042262;28;20122;-75
2022/07/05 09:24:09;;;;;;;3.70;1.80;;;25.00;74.10;;;;;;5042782;28;20060;-75
2022/07/05 09:26:44;;;;;;;4.60;1.67;;;25.40;73.20;;;;;;5039610;28;20024;-76
2022/07/05 09:29:18;;;;;;;3.42;1.70;;;25.70;72.70;;;;;;5043394;28;20037;-75
2022/07/05 09:31:49;;;;;;;3.47;1.50;;;26.00;71.40;;;;;;5044530;28;20448;-75
2022/07/05 09:34:16;;;;;;;3.85;2.20;;;26.20;71.20;;;;;;5047222;28;20124;-75
2022/07/05 09:36:58;;;;;;;2.17;1.42;;;26.40;68.60;;;;;;5044877;28;20063;-75
2022/07/05 09:39:30;;;;;;;3.03;1.70;;;26.50;67.60;;;;;;5034797;28;20033;-75
2022/07/05 09:42:14;;;;;;;3.90;1.90;;;26.50;67.00;;;;;;5039944;28;20540;-75
2022/07/05 09:44:50;;;;;;;4.35;1.70;;;26.30;66.70;;;;;;5040262;28;20057;-75
2022/07/05 09:47:18;;;;;;;5.22;1.60;;;25.90;68.60;;;;;;5042921;28;20449;-76
2022/07/05 09:49:44;;;;;;;2.67;1.50;;;25.60;68.50;;;;;;5035463;28;20115;-75
2022/07/05 09:52:24;;;;;;;4.18;1.60;;;25.70;68.70;;;;;;5045454;28;20481;-75
2022/07/05 09:55:09;;;;;;;3.70;1.80;;;25.90;69.80;;;;;;5044579;28;20400;-75
2022/07/05 09:57:40;;;;;;;3.25;1.48;;;26.20;68.20;;;;;;5041200;28;20017;-75
2022/07/05 10:00:08;;;;;;;2.22;1.42;;;26.20;67.80;;;;;;5040159;28;20033;-76
2022/07/05 10:02:38;;;;;;;6.15;1.55;;;26.40;67.00;;;;;;5038068;28;20044;-75
2022/07/05 10:05:11;;;;;;;3.72;1.80;;;26.60;66.30;;;;;;5038093;28;20021;-75
2022/07/05 10:07:38;;;;;;;;;;;26.40;64.50;;;;;;5043364;28;20049;-75
2022/07/05 10:10:05;;;;;;;3.03;1.65;;;26.30;64.40;;;;;;5055200;28;20427;-75
2022/07/05 10:12:31;;;;;;;3.10;1.40;;;26.20;64.80;;;;;;5041243;28;20492;-75
2022/07/05 10:14:58;;;;;;;5.90;1.83;;;26.10;65.50;;;;;;5038120;28;20021;-75
2022/07/05 10:17:25;;;;;;;3.90;1.30;;;25.90;66.90;;;;;;5045959;28;20489;-75
2022/07/05 10:19:52;;;;;;;3.22;1.42;;;26.00;66.80;;;;;;5043791;28;20060;-75
2022/07/05 10:22:18;;;;;;;7.55;2.05;;;26.10;66.30;;;;;;5036855;28;20040;-75
2022/07/05 10:24:45;;;;;;;3.72;1.52;;;26.30;65.70;;;;;;5050188;28;20031;-74
2022/07/05 10:27:12;;;;;;;6.68;2.20;;;26.30;64.60;;;;;;5048558;28;20041;-74
2022/07/05 10:29:38;;;;;;;3.35;1.90;;;26.40;64.90;;;;;;5039973;28;20684;-75
2022/07/05 10:32:08;;;;;;;3.30;1.52;;;26.40;64.40;;;;;;5041701;28;20107;-74
2022/07/05 10:34:35;;;;;;;2.95;1.83;;;26.50;64.00;;;;;;5050480;28;20400;-75
2022/07/05 10:37:00;;;;;;;3.20;1.50;;;26.20;64.00;;;;;;5047672;28;20419;-74
2022/07/05 10:39:27;;;;;;;5.63;2.40;;;26.00;65.00;;;;;;5041940;28;20025;-74
2022/07/05 10:41:54;;;;;;;4.88;1.70;;;25.90;64.60;;;;;;5031681;28;20048;-75
2022/07/05 10:44:34;;;;;;;5.20;1.55;;;25.90;63.40;;;;;;5047291;28;20033;-73
2022/07/05 10:47:10;;;;;;;3.08;1.70;;;25.80;65.70;;;;;;5041143;28;20107;-73
2022/07/05 10:49:37;;;;;;;4.72;1.40;;;25.50;65.30;;;;;;5047851;28;20099;-73
2022/07/05 10:52:04;;;;;;;1.70;1.13;;;25.40;66.50;;;;;;5046375;28;20037;-73
2022/07/05 10:54:29;;;;;;;1.92;1.30;;;25.30;66.20;;;;;;5047099;28;20481;-73
2022/07/05 10:57:22;;;;;;;4.60;1.33;;;25.20;65.30;;;;;;5042399;28;20029;-73
2022/07/05 11:00:10;;;;;;;5.27;1.50;;;25.10;65.90;;;;;;5043750;28;20389;-73
2022/07/05 11:02:39;;;;;;;2.17;1.70;;;24.90;66.60;;;;;;5041033;28;20285;-74
2022/07/05 11:05:05;;;;;;;2.55;1.13;;;24.70;65.80;;;;;;5040703;28;20426;-73
2022/07/05 11:08:03;;;;;;;4.88;1.75;;;24.60;66.80;;;;;;5042340;28;20607;-73
2022/07/05 11:10:31;;;;;;;2.42;1.25;;;24.70;67.10;;;;;;5038242;28;20021;-73
2022/07/05 11:12:57;;;;;;;3.85;1.38;;;24.70;66.80;;;;;;5043396;28;20091;-74
2022/07/05 11:15:22;;;;;;;2.35;1.13;;;24.80;67.50;;;;;;5045773;28;20029;-74
2022/07/05 11:17:48;;;;;;;1.92;1.45;;;24.90;66.70;;;;;;5046308;28;20033;-74
2022/07/05 11:20:19;;;;;;;2.90;1.63;;;25.10;66.00;;;;;;5039561;28;20559;-74
2022/07/05 11:23:04;;;;;;;2.92;1.25;;;25.40;65.90;;;;;;5063798;28;20024;-74
2022/07/05 11:25:32;;;;;;;1.85;1.27;;;25.70;64.70;;;;;;5045041;28;20040;-74
2022/07/05 11:28:12;;;;;;;3.72;1.23;;;26.00;64.70;;;;;;5047259;28;20104;-74
2022/07/05 11:30:50;;;;;;;4.03;1.20;;;26.10;62.50;;;;;;5041466;28;20024;-73
2022/07/05 11:33:39;;;;;;;4.47;1.50;;;26.40;62.60;;;;;;5041257;28;20485;-74
2022/07/05 11:36:22;;;;;;;1.88;1.10;;;26.50;61.80;;;;;;5042582;28;20036;-74
2022/07/05 11:39:06;;;;;;;2.15;1.10;;;26.60;61.40;;;;;;5040103;28;20036;-74
2022/07/05 11:41:32;;;;;;;2.40;1.20;;;26.50;60.20;;;;;;5033365;28;20031;-74
2022/07/05 11:43:58;;;;;;;2.55;1.45;;;26.40;60.50;;;;;;5046319;28;20135;-74
2022/07/05 11:46:24;;;;;;;2.97;1.23;;;26.20;61.30;;;;;;5038267;28;20592;-74
2022/07/05 11:48:51;;;;;;;4.57;1.60;;;26.20;61.20;;;;;;5038591;28;20028;-74
2022/07/05 11:51:18;;;;;;;1.48;1.30;;;26.00;61.00;;;;;;5038643;28;20071;-74
2022/07/05 11:53:44;;;;;;;1.13;0.95;;;25.90;60.90;;;;;;5037748;28;20029;-74
2022/07/05 11:56:10;;;;;;;2.45;1.42;;;25.80;61.60;;;;;;5037858;28;20037;-74
2022/07/05 11:58:36;;;;;;;1.40;1.30;;;25.80;62.10;;;;;;5040347;28;20095;-73
2022/07/05 12:01:02;;;;;;;4.50;1.45;;;25.80;61.60;;;;;;5046476;28;20036;-73
2022/07/05 12:03:28;;;;;;;1.60;1.17;;;26.20;62.40;;;;;;5039855;28;20437;-73
2022/07/05 12:05:54;;;;;;;2.88;1.20;;;26.70;60.30;;;;;;5038146;28;20266;-73
2022/07/05 12:08:21;;;;;;;2.30;1.50;;;27.10;59.60;;;;;;5037562;28;20021;-74
2022/07/05 12:13:42;;;;;;;1.80;1.27;;;27.80;58.20;;;;;;5044131;28;20473;-74
2022/07/05 12:16:07;;;;;;;2.08;1.40;;;28.10;56.40;;;;;;5052345;28;20051;-74
2022/07/05 12:18:49;;;;;;;3.38;1.20;;;28.10;55.90;;;;;;5044042;28;20476;-74
2022/07/05 12:21:15;;;;;;;2.03;1.27;;;27.90;55.60;;;;;;5038259;28;20036;-74
2022/07/05 12:23:42;;;;;;;2.17;1.00;;;27.70;56.40;;;;;;5035658;28;21001;-74
2022/07/05 12:26:09;;;;;;;3.60;1.42;;;27.30;57.30;;;;;;5042073;28;20025;-73
2022/07/05 12:28:36;;;;;;;2.67;1.30;;;26.90;58.30;;;;;;5037286;28;20032;-73
2022/07/05 12:31:21;;;;;;;2.42;1.20;;;26.60;58.00;;;;;;5040420;28;20500;-73
2022/07/05 12:33:47;;;;;;;6.72;1.48;;;26.30;59.20;;;;;;5034805;28;20052;-73
2022/07/05 12:36:16;;;;;;;5.00;1.40;;;26.20;58.60;;;;;;5038372;28;20055;-73
2022/07/05 12:38:42;;;;;;;2.08;1.05;;;26.10;59.20;;;;;;5040610;28;20036;-73
2022/07/05 12:41:08;;;;;;;3.00;1.00;;;26.40;58.90;;;;;;5041785;28;20024;-73
2022/07/05 12:43:52;;;;;;;3.13;1.17;;;26.80;58.60;;;;;;5042437;28;20028;-74
2022/07/05 12:46:17;;;;;;;3.30;1.30;;;27.00;56.90;;;;;;5042005;28;20057;-73
2022/07/05 12:48:43;;;;;;;3.25;1.17;;;27.20;55.80;;;;;;5043782;28;20063;-74
2022/07/05 12:51:10;;;;;;;2.83;1.02;;;27.40;56.80;;;;;;5037703;28;20326;-73
2022/07/05 12:59:16;;;;;;;1.17;0.98;;;28.10;55.10;;;;;;5041549;28;20496;-72
2022/07/05 13:01:44;;;;;;;3.40;1.10;;;28.20;54.50;;;;;;5030583;28;20033;-71